sensor_id;sensor_type;location;lat;lon;timestamp;temperature;humidity
84330;SHT31;74510;42.676;23.432;2024-01-27T00:01:24;0.02;78.13
84330;SHT31;74510;42.676;23.432;2024-01-27T00:03:49;0.02;78.05
84330;SHT31;74510;42.676;23.432;2024-01-27T00:06:16;-0.01;77.98
84330;SHT31;74510;42.676;23.432;2024-01-27T00:08:42;-0.09;78.05
84330;SHT31;74510;42.676;23.432;2024-01-27T00:11:07;-0.16;78.16
84330;SHT31;74510;42.676;23.432;2024-01-27T00:13:33;-0.16;78.05
84330;SHT31;74510;42.676;23.432;2024-01-27T00:15:58;-0.26;78.26
84330;SHT31;74510;42.676;23.432;2024-01-27T00:18:24;-0.36;78.72
84330;SHT31;74510;42.676;23.432;2024-01-27T00:20:49;-0.37;79.07
84330;SHT31;74510;42.676;23.432;2024-01-27T00:23:14;-0.35;78.93
84330;SHT31;74510;42.676;23.432;2024-01-27T00:25:40;-0.42;78.75
84330;SHT31;74510;42.676;23.432;2024-01-27T00:28:05;-0.39;79.20
84330;SHT31;74510;42.676;23.432;2024-01-27T00:30:31;-0.30;79.51
84330;SHT31;74510;42.676;23.432;2024-01-27T00:32:56;-0.39;79.98
84330;SHT31;74510;42.676;23.432;2024-01-27T00:35:22;-0.28;79.32
84330;SHT31;74510;42.676;23.432;2024-01-27T00:37:47;-0.25;79.19
84330;SHT31;74510;42.676;23.432;2024-01-27T00:40:13;-0.22;79.19
84330;SHT31;74510;42.676;23.432;2024-01-27T00:42:40;-0.18;78.11
84330;SHT31;74510;42.676;23.432;2024-01-27T00:45:06;-0.21;78.27
84330;SHT31;74510;42.676;23.432;2024-01-27T00:47:31;-0.25;78.17
84330;SHT31;74510;42.676;23.432;2024-01-27T00:49:57;-0.35;78.87
84330;SHT31;74510;42.676;23.432;2024-01-27T00:52:22;-0.37;78.88
84330;SHT31;74510;42.676;23.432;2024-01-27T00:54:48;-0.44;79.31
84330;SHT31;74510;42.676;23.432;2024-01-27T00:57:13;-0.42;79.21
84330;SHT31;74510;42.676;23.432;2024-01-27T00:59:38;-0.50;79.60
84330;SHT31;74510;42.676;23.432;2024-01-27T01:02:04;-0.56;79.71
84330;SHT31;74510;42.676;23.432;2024-01-27T01:04:29;-0.53;79.48
84330;SHT31;74510;42.676;23.432;2024-01-27T01:06:55;-0.37;79.62
84330;SHT31;74510;42.676;23.432;2024-01-27T01:09:21;-0.54;79.77
84330;SHT31;74510;42.676;23.432;2024-01-27T01:11:46;-0.64;80.03
84330;SHT31;74510;42.676;23.432;2024-01-27T01:14:12;-0.49;80.13
84330;SHT31;74510;42.676;23.432;2024-01-27T01:16:37;-0.53;79.93
84330;SHT31;74510;42.676;23.432;2024-01-27T01:19:03;-0.53;80.22
84330;SHT31;74510;42.676;23.432;2024-01-27T01:21:29;-0.66;80.37
84330;SHT31;74510;42.676;23.432;2024-01-27T01:23:54;-0.79;80.71
84330;SHT31;74510;42.676;23.432;2024-01-27T01:26:20;-0.87;81.39
84330;SHT31;74510;42.676;23.432;2024-01-27T01:28:46;-0.90;81.26
84330;SHT31;74510;42.676;23.432;2024-01-27T01:31:11;-0.94;81.49
84330;SHT31;74510;42.676;23.432;2024-01-27T01:33:37;-0.94;81.74
84330;SHT31;74510;42.676;23.432;2024-01-27T01:36:02;-0.92;81.79
84330;SHT31;74510;42.676;23.432;2024-01-27T01:38:28;-0.88;81.68
84330;SHT31;74510;42.676;23.432;2024-01-27T01:40:53;-0.92;82.10
84330;SHT31;74510;42.676;23.432;2024-01-27T01:43:18;-0.88;82.01
84330;SHT31;74510;42.676;23.432;2024-01-27T01:45:44;-0.90;82.20
84330;SHT31;74510;42.676;23.432;2024-01-27T01:48:09;-0.80;82.34
84330;SHT31;74510;42.676;23.432;2024-01-27T01:50:35;-0.77;82.28
84330;SHT31;74510;42.676;23.432;2024-01-27T01:53:01;-0.66;82.29
84330;SHT31;74510;42.676;23.432;2024-01-27T01:55:26;-0.67;82.16
84330;SHT31;74510;42.676;23.432;2024-01-27T01:57:52;-0.50;81.82
84330;SHT31;74510;42.676;23.432;2024-01-27T02:00:17;-0.16;81.09
84330;SHT31;74510;42.676;23.432;2024-01-27T02:02:44;-0.11;80.36
84330;SHT31;74510;42.676;23.432;2024-01-27T02:05:12;-0.05;80.19
84330;SHT31;74510;42.676;23.432;2024-01-27T02:07:37;0.07;80.22
84330;SHT31;74510;42.676;23.432;2024-01-27T02:10:03;0.15;79.76
84330;SHT31;74510;42.676;23.432;2024-01-27T02:12:29;0.27;79.36
84330;SHT31;74510;42.676;23.432;2024-01-27T02:14:54;0.35;78.95
84330;SHT31;74510;42.676;23.432;2024-01-27T02:17:19;0.58;78.63
84330;SHT31;74510;42.676;23.432;2024-01-27T02:19:45;0.49;79.23
84330;SHT31;74510;42.676;23.432;2024-01-27T02:22:10;0.49;78.84
84330;SHT31;74510;42.676;23.432;2024-01-27T02:24:36;0.26;79.74
84330;SHT31;74510;42.676;23.432;2024-01-27T02:27:01;0.17;80.11
84330;SHT31;74510;42.676;23.432;2024-01-27T02:29:27;0.10;80.18
84330;SHT31;74510;42.676;23.432;2024-01-27T02:31:53;0.17;80.28
84330;SHT31;74510;42.676;23.432;2024-01-27T02:34:19;0.37;79.85
84330;SHT31;74510;42.676;23.432;2024-01-27T02:36:44;0.32;79.94
84330;SHT31;74510;42.676;23.432;2024-01-27T02:39:10;0.27;80.08
84330;SHT31;74510;42.676;23.432;2024-01-27T02:41:36;0.39;80.27
84330;SHT31;74510;42.676;23.432;2024-01-27T02:44:07;0.35;80.32
84330;SHT31;74510;42.676;23.432;2024-01-27T02:46:33;0.36;80.58
84330;SHT31;74510;42.676;23.432;2024-01-27T02:48:58;0.52;79.93
84330;SHT31;74510;42.676;23.432;2024-01-27T02:51:24;0.44;80.01
84330;SHT31;74510;42.676;23.432;2024-01-27T02:53:49;0.43;80.27
84330;SHT31;74510;42.676;23.432;2024-01-27T02:56:17;0.42;80.51
84330;SHT31;74510;42.676;23.432;2024-01-27T02:58:43;0.44;80.56
84330;SHT31;74510;42.676;23.432;2024-01-27T03:01:08;0.42;80.54
84330;SHT31;74510;42.676;23.432;2024-01-27T03:03:34;0.44;80.66
84330;SHT31;74510;42.676;23.432;2024-01-27T03:05:59;0.46;80.86
84330;SHT31;74510;42.676;23.432;2024-01-27T03:08:26;0.47;80.85
84330;SHT31;74510;42.676;23.432;2024-01-27T03:10:51;0.60;80.54
84330;SHT31;74510;42.676;23.432;2024-01-27T03:13:17;0.57;80.65
84330;SHT31;74510;42.676;23.432;2024-01-27T03:15:44;0.60;80.41
84330;SHT31;74510;42.676;23.432;2024-01-27T03:18:09;0.67;79.39
84330;SHT31;74510;42.676;23.432;2024-01-27T03:20:35;0.73;79.37
84330;SHT31;74510;42.676;23.432;2024-01-27T03:23:00;0.65;79.70
84330;SHT31;74510;42.676;23.432;2024-01-27T03:25:26;0.64;79.68
84330;SHT31;74510;42.676;23.432;2024-01-27T03:27:52;0.60;80.18
84330;SHT31;74510;42.676;23.432;2024-01-27T03:30:17;0.57;80.15
84330;SHT31;74510;42.676;23.432;2024-01-27T03:32:43;0.60;80.11
84330;SHT31;74510;42.676;23.432;2024-01-27T03:35:08;0.64;79.84
84330;SHT31;74510;42.676;23.432;2024-01-27T03:37:34;0.63;79.87
84330;SHT31;74510;42.676;23.432;2024-01-27T03:40:09;0.67;79.93
84330;SHT31;74510;42.676;23.432;2024-01-27T03:42:34;0.67;80.03
84330;SHT31;74510;42.676;23.432;2024-01-27T03:45:00;0.68;80.20
84330;SHT31;74510;42.676;23.432;2024-01-27T03:47:25;0.77;80.48
84330;SHT31;74510;42.676;23.432;2024-01-27T03:49:51;0.92;79.63
84330;SHT31;74510;42.676;23.432;2024-01-27T03:52:16;0.80;80.33
84330;SHT31;74510;42.676;23.432;2024-01-27T03:54:41;0.94;80.17
84330;SHT31;74510;42.676;23.432;2024-01-27T03:57:07;1.02;80.29
84330;SHT31;74510;42.676;23.432;2024-01-27T03:59:32;1.01;80.29
84330;SHT31;74510;42.676;23.432;2024-01-27T04:01:58;0.98;80.19
84330;SHT31;74510;42.676;23.432;2024-01-27T04:04:23;0.92;80.81
84330;SHT31;74510;42.676;23.432;2024-01-27T04:06:49;0.98;80.64
84330;SHT31;74510;42.676;23.432;2024-01-27T04:09:15;0.92;81.40
84330;SHT31;74510;42.676;23.432;2024-01-27T04:11:41;0.91;81.45
84330;SHT31;74510;42.676;23.432;2024-01-27T04:14:07;0.94;82.08
84330;SHT31;74510;42.676;23.432;2024-01-27T04:16:33;0.95;82.30
84330;SHT31;74510;42.676;23.432;2024-01-27T04:18:58;0.99;82.56
84330;SHT31;74510;42.676;23.432;2024-01-27T04:21:24;1.09;82.33
84330;SHT31;74510;42.676;23.432;2024-01-27T04:23:49;1.09;82.28
84330;SHT31;74510;42.676;23.432;2024-01-27T04:26:15;1.16;82.94
84330;SHT31;74510;42.676;23.432;2024-01-27T04:28:41;1.56;83.73
84330;SHT31;74510;42.676;23.432;2024-01-27T04:31:06;1.87;83.28
84330;SHT31;74510;42.676;23.432;2024-01-27T04:33:32;2.19;82.75
84330;SHT31;74510;42.676;23.432;2024-01-27T04:35:58;2.39;82.15
84330;SHT31;74510;42.676;23.432;2024-01-27T04:38:23;2.39;82.24
84330;SHT31;74510;42.676;23.432;2024-01-27T04:40:50;2.32;82.08
84330;SHT31;74510;42.676;23.432;2024-01-27T04:43:16;2.25;82.94
84330;SHT31;74510;42.676;23.432;2024-01-27T04:45:42;2.05;83.43
84330;SHT31;74510;42.676;23.432;2024-01-27T04:48:07;2.00;83.86
84330;SHT31;74510;42.676;23.432;2024-01-27T04:50:33;1.97;83.92
84330;SHT31;74510;42.676;23.432;2024-01-27T04:52:59;1.87;84.70
84330;SHT31;74510;42.676;23.432;2024-01-27T04:55:24;1.81;85.24
84330;SHT31;74510;42.676;23.432;2024-01-27T04:57:49;1.70;85.98
84330;SHT31;74510;42.676;23.432;2024-01-27T05:00:15;1.68;86.07
84330;SHT31;74510;42.676;23.432;2024-01-27T05:02:41;1.57;86.61
84330;SHT31;74510;42.676;23.432;2024-01-27T05:05:07;1.46;87.30
84330;SHT31;74510;42.676;23.432;2024-01-27T05:07:33;1.47;87.24
84330;SHT31;74510;42.676;23.432;2024-01-27T05:09:58;1.42;87.69
84330;SHT31;74510;42.676;23.432;2024-01-27T05:12:24;1.36;87.94
84330;SHT31;74510;42.676;23.432;2024-01-27T05:14:49;1.38;88.07
84330;SHT31;74510;42.676;23.432;2024-01-27T05:17:15;1.39;87.87
84330;SHT31;74510;42.676;23.432;2024-01-27T05:19:40;1.35;88.13
84330;SHT31;74510;42.676;23.432;2024-01-27T05:22:06;1.35;88.47
84330;SHT31;74510;42.676;23.432;2024-01-27T05:24:31;1.31;88.71
84330;SHT31;74510;42.676;23.432;2024-01-27T05:26:57;1.31;88.78
84330;SHT31;74510;42.676;23.432;2024-01-27T05:29:22;1.29;88.83
84330;SHT31;74510;42.676;23.432;2024-01-27T05:31:47;1.26;89.01
84330;SHT31;74510;42.676;23.432;2024-01-27T05:34:13;1.23;89.27
84330;SHT31;74510;42.676;23.432;2024-01-27T05:36:39;1.22;89.28
84330;SHT31;74510;42.676;23.432;2024-01-27T05:39:04;1.26;89.18
84330;SHT31;74510;42.676;23.432;2024-01-27T05:41:31;1.22;89.53
84330;SHT31;74510;42.676;23.432;2024-01-27T05:43:56;1.28;89.19
84330;SHT31;74510;42.676;23.432;2024-01-27T05:46:25;1.23;89.52
84330;SHT31;74510;42.676;23.432;2024-01-27T05:48:51;1.29;89.44
84330;SHT31;74510;42.676;23.432;2024-01-27T05:51:19;1.28;89.63
84330;SHT31;74510;42.676;23.432;2024-01-27T05:53:44;1.29;89.71
84330;SHT31;74510;42.676;23.432;2024-01-27T05:56:10;1.33;89.53
84330;SHT31;74510;42.676;23.432;2024-01-27T05:58:36;1.29;89.77
84330;SHT31;74510;42.676;23.432;2024-01-27T06:01:02;1.25;89.81
84330;SHT31;74510;42.676;23.432;2024-01-27T06:03:27;1.31;89.94
84330;SHT31;74510;42.676;23.432;2024-01-27T06:05:53;1.22;90.16
84330;SHT31;74510;42.676;23.432;2024-01-27T06:08:18;1.26;90.30
84330;SHT31;74510;42.676;23.432;2024-01-27T06:10:45;1.28;90.40
84330;SHT31;74510;42.676;23.432;2024-01-27T06:13:11;1.22;90.64
84330;SHT31;74510;42.676;23.432;2024-01-27T06:15:36;1.23;90.65
84330;SHT31;74510;42.676;23.432;2024-01-27T06:18:01;1.25;90.82
84330;SHT31;74510;42.676;23.432;2024-01-27T06:20:27;1.18;90.89
84330;SHT31;74510;42.676;23.432;2024-01-27T06:22:53;1.11;91.20
84330;SHT31;74510;42.676;23.432;2024-01-27T06:25:19;1.18;91.57
84330;SHT31;74510;42.676;23.432;2024-01-27T06:27:45;1.13;91.74
84330;SHT31;74510;42.676;23.432;2024-01-27T06:30:11;1.31;91.40
84330;SHT31;74510;42.676;23.432;2024-01-27T06:32:36;1.26;91.33
84330;SHT31;74510;42.676;23.432;2024-01-27T06:35:03;1.28;91.34
84330;SHT31;74510;42.676;23.432;2024-01-27T06:37:29;1.49;90.97
84330;SHT31;74510;42.676;23.432;2024-01-27T06:39:54;1.54;90.73
84330;SHT31;74510;42.676;23.432;2024-01-27T06:42:20;1.60;91.00
84330;SHT31;74510;42.676;23.432;2024-01-27T06:44:45;1.63;90.53
84330;SHT31;74510;42.676;23.432;2024-01-27T06:47:11;1.71;90.06
84330;SHT31;74510;42.676;23.432;2024-01-27T06:49:36;1.85;89.12
84330;SHT31;74510;42.676;23.432;2024-01-27T06:52:02;1.81;89.12
84330;SHT31;74510;42.676;23.432;2024-01-27T06:54:27;1.78;89.29
84330;SHT31;74510;42.676;23.432;2024-01-27T06:56:53;1.75;89.63
84330;SHT31;74510;42.676;23.432;2024-01-27T06:59:18;1.73;89.87
84330;SHT31;74510;42.676;23.432;2024-01-27T07:01:47;1.88;89.46
84330;SHT31;74510;42.676;23.432;2024-01-27T07:04:16;2.04;88.85
84330;SHT31;74510;42.676;23.432;2024-01-27T07:06:42;2.01;88.70
84330;SHT31;74510;42.676;23.432;2024-01-27T07:09:08;2.08;89.04
84330;SHT31;74510;42.676;23.432;2024-01-27T07:11:35;2.24;88.86
84330;SHT31;74510;42.676;23.432;2024-01-27T07:14:00;2.48;88.12
84330;SHT31;74510;42.676;23.432;2024-01-27T07:16:25;3.15;85.45
84330;SHT31;74510;42.676;23.432;2024-01-27T07:18:51;3.58;83.89
84330;SHT31;74510;42.676;23.432;2024-01-27T07:21:17;4.03;81.35
84330;SHT31;74510;42.676;23.432;2024-01-27T07:23:43;4.21;80.08
84330;SHT31;74510;42.676;23.432;2024-01-27T07:26:10;4.40;79.11
84330;SHT31;74510;42.676;23.432;2024-01-27T07:28:36;4.51;78.06
84330;SHT31;74510;42.676;23.432;2024-01-27T07:31:01;4.58;77.09
84330;SHT31;74510;42.676;23.432;2024-01-27T07:33:27;4.62;76.22
84330;SHT31;74510;42.676;23.432;2024-01-27T07:35:52;4.55;76.56
84330;SHT31;74510;42.676;23.432;2024-01-27T07:38:18;4.49;77.15
84330;SHT31;74510;42.676;23.432;2024-01-27T07:40:43;4.44;76.90
84330;SHT31;74510;42.676;23.432;2024-01-27T07:43:08;4.38;77.38
84330;SHT31;74510;42.676;23.432;2024-01-27T07:45:34;4.34;76.93
84330;SHT31;74510;42.676;23.432;2024-01-27T07:47:59;4.44;77.11
84330;SHT31;74510;42.676;23.432;2024-01-27T07:50:25;4.48;75.41
84330;SHT31;74510;42.676;23.432;2024-01-27T07:52:50;4.52;74.90
84330;SHT31;74510;42.676;23.432;2024-01-27T07:55:16;4.55;74.10
84330;SHT31;74510;42.676;23.432;2024-01-27T07:57:42;4.59;73.58
84330;SHT31;74510;42.676;23.432;2024-01-27T08:00:08;4.65;74.48
84330;SHT31;74510;42.676;23.432;2024-01-27T08:02:34;4.66;73.10
84330;SHT31;74510;42.676;23.432;2024-01-27T08:05:00;4.58;72.87
84330;SHT31;74510;42.676;23.432;2024-01-27T08:07:25;4.52;73.08
84330;SHT31;74510;42.676;23.432;2024-01-27T08:09:50;4.46;73.16
84330;SHT31;74510;42.676;23.432;2024-01-27T08:12:16;4.42;73.24
84330;SHT31;74510;42.676;23.432;2024-01-27T08:14:41;4.44;73.78
84330;SHT31;74510;42.676;23.432;2024-01-27T08:17:07;4.41;74.07
84330;SHT31;74510;42.676;23.432;2024-01-27T08:19:32;4.41;73.46
84330;SHT31;74510;42.676;23.432;2024-01-27T08:21:58;4.38;73.72
84330;SHT31;74510;42.676;23.432;2024-01-27T08:24:23;4.40;73.16
84330;SHT31;74510;42.676;23.432;2024-01-27T08:26:50;4.46;73.49
84330;SHT31;74510;42.676;23.432;2024-01-27T08:29:15;4.49;73.68
84330;SHT31;74510;42.676;23.432;2024-01-27T08:31:41;4.48;73.44
84330;SHT31;74510;42.676;23.432;2024-01-27T08:34:06;4.40;73.18
84330;SHT31;74510;42.676;23.432;2024-01-27T08:36:32;4.32;73.43
84330;SHT31;74510;42.676;23.432;2024-01-27T08:38:59;4.40;72.89
84330;SHT31;74510;42.676;23.432;2024-01-27T08:41:24;4.53;72.63
84330;SHT31;74510;42.676;23.432;2024-01-27T08:43:50;4.55;71.95
84330;SHT31;74510;42.676;23.432;2024-01-27T08:46:15;4.62;71.60
84330;SHT31;74510;42.676;23.432;2024-01-27T08:48:42;4.79;71.44
84330;SHT31;74510;42.676;23.432;2024-01-27T08:51:09;4.94;70.74
84330;SHT31;74510;42.676;23.432;2024-01-27T08:53:35;5.13;70.30
84330;SHT31;74510;42.676;23.432;2024-01-27T08:56:01;5.10;70.68
84330;SHT31;74510;42.676;23.432;2024-01-27T08:58:26;4.99;70.24
84330;SHT31;74510;42.676;23.432;2024-01-27T09:00:52;4.96;70.72
84330;SHT31;74510;42.676;23.432;2024-01-27T09:03:18;5.04;69.71
84330;SHT31;74510;42.676;23.432;2024-01-27T09:05:46;5.04;69.65
84330;SHT31;74510;42.676;23.432;2024-01-27T09:08:11;5.14;70.64
84330;SHT31;74510;42.676;23.432;2024-01-27T09:10:37;5.21;69.43
84330;SHT31;74510;42.676;23.432;2024-01-27T09:13:02;5.20;69.50
84330;SHT31;74510;42.676;23.432;2024-01-27T09:15:28;5.31;68.86
84330;SHT31;74510;42.676;23.432;2024-01-27T09:17:53;5.38;69.30
84330;SHT31;74510;42.676;23.432;2024-01-27T09:20:19;5.54;68.05
84330;SHT31;74510;42.676;23.432;2024-01-27T09:22:45;5.41;68.06
84330;SHT31;74510;42.676;23.432;2024-01-27T09:25:12;5.34;67.90
84330;SHT31;74510;42.676;23.432;2024-01-27T09:27:38;5.34;68.40
84330;SHT31;74510;42.676;23.432;2024-01-27T09:30:04;5.41;68.54
84330;SHT31;74510;42.676;23.432;2024-01-27T09:32:30;5.56;68.86
84330;SHT31;74510;42.676;23.432;2024-01-27T09:34:55;5.45;68.04
84330;SHT31;74510;42.676;23.432;2024-01-27T09:37:21;5.59;68.48
84330;SHT31;74510;42.676;23.432;2024-01-27T09:39:46;5.83;67.30
84330;SHT31;74510;42.676;23.432;2024-01-27T09:42:13;5.76;66.29
84330;SHT31;74510;42.676;23.432;2024-01-27T09:44:45;5.63;66.22
84330;SHT31;74510;42.676;23.432;2024-01-27T09:47:13;5.78;67.22
84330;SHT31;74510;42.676;23.432;2024-01-27T09:49:42;5.70;67.13
84330;SHT31;74510;42.676;23.432;2024-01-27T09:52:08;5.83;67.82
84330;SHT31;74510;42.676;23.432;2024-01-27T09:54:34;5.69;66.85
84330;SHT31;74510;42.676;23.432;2024-01-27T09:57:00;5.54;67.09
84330;SHT31;74510;42.676;23.432;2024-01-27T09:59:26;5.48;67.08
84330;SHT31;74510;42.676;23.432;2024-01-27T10:01:52;5.41;66.60
84330;SHT31;74510;42.676;23.432;2024-01-27T10:04:19;5.31;66.64
84330;SHT31;74510;42.676;23.432;2024-01-27T10:06:47;5.28;67.17
84330;SHT31;74510;42.676;23.432;2024-01-27T10:09:14;5.32;66.56
84330;SHT31;74510;42.676;23.432;2024-01-27T10:11:43;5.24;66.54
84330;SHT31;74510;42.676;23.432;2024-01-27T10:14:10;5.21;67.31
84330;SHT31;74510;42.676;23.432;2024-01-27T10:16:43;5.20;67.18
84330;SHT31;74510;42.676;23.432;2024-01-27T10:19:14;5.16;67.19
84330;SHT31;74510;42.676;23.432;2024-01-27T10:21:41;5.19;66.96
84330;SHT31;74510;42.676;23.432;2024-01-27T10:24:06;5.16;68.01
84330;SHT31;74510;42.676;23.432;2024-01-27T10:26:33;5.20;67.33
84330;SHT31;74510;42.676;23.432;2024-01-27T10:29:00;5.14;67.59
84330;SHT31;74510;42.676;23.432;2024-01-27T10:31:28;5.07;67.26
84330;SHT31;74510;42.676;23.432;2024-01-27T10:33:55;4.97;67.53
84330;SHT31;74510;42.676;23.432;2024-01-27T10:36:21;4.96;68.29
84330;SHT31;74510;42.676;23.432;2024-01-27T10:38:47;4.93;68.47
84330;SHT31;74510;42.676;23.432;2024-01-27T10:41:21;4.86;68.52
84330;SHT31;74510;42.676;23.432;2024-01-27T10:43:50;4.86;68.23
84330;SHT31;74510;42.676;23.432;2024-01-27T10:46:19;4.83;69.21
84330;SHT31;74510;42.676;23.432;2024-01-27T10:48:50;4.80;68.64
84330;SHT31;74510;42.676;23.432;2024-01-27T10:51:23;4.76;68.94
84330;SHT31;74510;42.676;23.432;2024-01-27T10:53:52;4.89;69.21
84330;SHT31;74510;42.676;23.432;2024-01-27T10:56:21;4.93;69.18
84330;SHT31;74510;42.676;23.432;2024-01-27T10:58:49;4.94;68.66
84330;SHT31;74510;42.676;23.432;2024-01-27T11:01:16;4.92;68.68
84330;SHT31;74510;42.676;23.432;2024-01-27T11:03:44;4.92;68.91
84330;SHT31;74510;42.676;23.432;2024-01-27T11:06:11;4.84;68.71
84330;SHT31;74510;42.676;23.432;2024-01-27T11:08:38;4.80;68.94
84330;SHT31;74510;42.676;23.432;2024-01-27T11:11:04;4.84;69.29
84330;SHT31;74510;42.676;23.432;2024-01-27T11:13:31;4.87;69.37
84330;SHT31;74510;42.676;23.432;2024-01-27T11:15:57;4.86;69.00
84330;SHT31;74510;42.676;23.432;2024-01-27T11:18:26;4.75;69.60
84330;SHT31;74510;42.676;23.432;2024-01-27T11:20:53;4.73;70.75
84330;SHT31;74510;42.676;23.432;2024-01-27T11:23:19;4.75;70.54
84330;SHT31;74510;42.676;23.432;2024-01-27T11:25:44;4.69;70.47
84330;SHT31;74510;42.676;23.432;2024-01-27T11:28:16;4.65;70.48
84330;SHT31;74510;42.676;23.432;2024-01-27T11:30:48;4.55;71.48
84330;SHT31;74510;42.676;23.432;2024-01-27T11:33:13;4.56;71.00
84330;SHT31;74510;42.676;23.432;2024-01-27T11:35:39;4.59;70.63
84330;SHT31;74510;42.676;23.432;2024-01-27T11:38:04;4.65;70.95
84330;SHT31;74510;42.676;23.432;2024-01-27T11:40:30;4.61;70.90
84330;SHT31;74510;42.676;23.432;2024-01-27T11:42:56;4.61;70.70
84330;SHT31;74510;42.676;23.432;2024-01-27T11:45:22;4.55;70.88
84330;SHT31;74510;42.676;23.432;2024-01-27T11:47:47;4.58;71.03
84330;SHT31;74510;42.676;23.432;2024-01-27T11:50:13;4.58;71.09
84330;SHT31;74510;42.676;23.432;2024-01-27T11:52:38;4.51;70.62
84330;SHT31;74510;42.676;23.432;2024-01-27T11:55:04;4.49;70.69
84330;SHT31;74510;42.676;23.432;2024-01-27T11:57:29;4.52;70.60
84330;SHT31;74510;42.676;23.432;2024-01-27T11:59:55;4.44;69.96
84330;SHT31;74510;42.676;23.432;2024-01-27T12:02:21;4.45;69.44
84330;SHT31;74510;42.676;23.432;2024-01-27T12:04:47;4.45;69.97
84330;SHT31;74510;42.676;23.432;2024-01-27T12:07:14;4.45;70.05
84330;SHT31;74510;42.676;23.432;2024-01-27T12:09:39;4.53;69.26
84330;SHT31;74510;42.676;23.432;2024-01-27T12:12:05;4.61;69.05
84330;SHT31;74510;42.676;23.432;2024-01-27T12:14:41;4.62;68.97
84330;SHT31;74510;42.676;23.432;2024-01-27T12:17:10;4.62;67.88
84330;SHT31;74510;42.676;23.432;2024-01-27T12:19:36;4.76;67.88
84330;SHT31;74510;42.676;23.432;2024-01-27T12:22:02;4.68;67.82
84330;SHT31;74510;42.676;23.432;2024-01-27T12:24:27;4.75;67.77
84330;SHT31;74510;42.676;23.432;2024-01-27T12:26:55;4.76;67.54
84330;SHT31;74510;42.676;23.432;2024-01-27T12:29:22;4.84;66.77
84330;SHT31;74510;42.676;23.432;2024-01-27T12:31:47;4.93;66.19
84330;SHT31;74510;42.676;23.432;2024-01-27T12:34:13;5.06;65.87
84330;SHT31;74510;42.676;23.432;2024-01-27T12:36:42;5.03;65.72
84330;SHT31;74510;42.676;23.432;2024-01-27T12:39:08;5.20;65.59
84330;SHT31;74510;42.676;23.432;2024-01-27T12:41:34;5.66;64.27
84330;SHT31;74510;42.676;23.432;2024-01-27T12:44:00;5.68;63.78
84330;SHT31;74510;42.676;23.432;2024-01-27T12:46:25;5.80;63.48
84330;SHT31;74510;42.676;23.432;2024-01-27T12:48:51;5.73;63.61
84330;SHT31;74510;42.676;23.432;2024-01-27T12:51:16;5.66;63.34
84330;SHT31;74510;42.676;23.432;2024-01-27T12:53:43;5.68;63.44
84330;SHT31;74510;42.676;23.432;2024-01-27T12:56:13;5.63;63.93
84330;SHT31;74510;42.676;23.432;2024-01-27T12:58:40;5.41;64.86
84330;SHT31;74510;42.676;23.432;2024-01-27T13:01:07;5.34;64.57
84330;SHT31;74510;42.676;23.432;2024-01-27T13:03:33;5.23;65.51
84330;SHT31;74510;42.676;23.432;2024-01-27T13:05:58;5.35;63.98
84330;SHT31;74510;42.676;23.432;2024-01-27T13:08:24;5.37;63.55
84330;SHT31;74510;42.676;23.432;2024-01-27T13:10:49;5.32;63.53
84330;SHT31;74510;42.676;23.432;2024-01-27T13:13:15;5.37;63.43
84330;SHT31;74510;42.676;23.432;2024-01-27T13:15:41;5.42;62.89
84330;SHT31;74510;42.676;23.432;2024-01-27T13:18:07;5.47;62.18
84330;SHT31;74510;42.676;23.432;2024-01-27T13:20:32;5.42;61.00
84330;SHT31;74510;42.676;23.432;2024-01-27T13:22:59;5.40;60.44
84330;SHT31;74510;42.676;23.432;2024-01-27T13:25:24;5.49;60.22
84330;SHT31;74510;42.676;23.432;2024-01-27T13:27:50;5.47;60.32
84330;SHT31;74510;42.676;23.432;2024-01-27T13:30:16;5.47;59.64
84330;SHT31;74510;42.676;23.432;2024-01-27T13:32:43;5.49;59.11
84330;SHT31;74510;42.676;23.432;2024-01-27T13:35:09;5.51;58.78
84330;SHT31;74510;42.676;23.432;2024-01-27T13:37:34;5.59;58.44
84330;SHT31;74510;42.676;23.432;2024-01-27T13:40:00;5.56;57.53
84330;SHT31;74510;42.676;23.432;2024-01-27T13:42:26;5.54;56.88
84330;SHT31;74510;42.676;23.432;2024-01-27T13:44:52;5.51;57.29
84330;SHT31;74510;42.676;23.432;2024-01-27T13:47:17;5.41;57.96
84330;SHT31;74510;42.676;23.432;2024-01-27T13:49:43;5.44;58.29
84330;SHT31;74510;42.676;23.432;2024-01-27T13:52:09;5.35;56.86
84330;SHT31;74510;42.676;23.432;2024-01-27T13:54:34;5.37;57.08
84330;SHT31;74510;42.676;23.432;2024-01-27T13:57:01;5.40;57.06
84330;SHT31;74510;42.676;23.432;2024-01-27T13:59:27;5.41;57.17
84330;SHT31;74510;42.676;23.432;2024-01-27T14:01:52;5.38;56.25
84330;SHT31;74510;42.676;23.432;2024-01-27T14:04:18;5.34;57.79
84330;SHT31;74510;42.676;23.432;2024-01-27T14:06:44;5.41;57.73
84330;SHT31;74510;42.676;23.432;2024-01-27T14:09:10;5.31;56.68
84330;SHT31;74510;42.676;23.432;2024-01-27T14:11:35;5.23;57.39
84330;SHT31;74510;42.676;23.432;2024-01-27T14:14:00;5.19;57.46
84330;SHT31;74510;42.676;23.432;2024-01-27T14:16:26;5.07;57.48
84330;SHT31;74510;42.676;23.432;2024-01-27T14:18:51;5.01;57.93
84330;SHT31;74510;42.676;23.432;2024-01-27T14:21:17;4.99;57.98
84330;SHT31;74510;42.676;23.432;2024-01-27T14:23:42;4.97;58.09
84330;SHT31;74510;42.676;23.432;2024-01-27T14:26:08;4.92;58.36
84330;SHT31;74510;42.676;23.432;2024-01-27T14:28:43;4.87;58.54
84330;SHT31;74510;42.676;23.432;2024-01-27T14:31:10;4.84;58.57
84330;SHT31;74510;42.676;23.432;2024-01-27T14:33:36;4.80;58.84
84330;SHT31;74510;42.676;23.432;2024-01-27T14:36:01;4.77;58.48
84330;SHT31;74510;42.676;23.432;2024-01-27T14:38:27;4.69;59.01
84330;SHT31;74510;42.676;23.432;2024-01-27T14:40:52;4.63;59.73
84330;SHT31;74510;42.676;23.432;2024-01-27T14:43:18;4.49;59.57
84330;SHT31;74510;42.676;23.432;2024-01-27T14:45:47;4.52;60.02
84330;SHT31;74510;42.676;23.432;2024-01-27T14:48:13;4.51;59.73
84330;SHT31;74510;42.676;23.432;2024-01-27T14:50:38;4.52;59.02
84330;SHT31;74510;42.676;23.432;2024-01-27T14:53:04;4.58;59.01
84330;SHT31;74510;42.676;23.432;2024-01-27T14:55:31;4.48;59.44
84330;SHT31;74510;42.676;23.432;2024-01-27T14:57:58;4.55;59.76
84330;SHT31;74510;42.676;23.432;2024-01-27T15:00:24;4.52;59.56
84330;SHT31;74510;42.676;23.432;2024-01-27T15:02:49;4.44;59.93
84330;SHT31;74510;42.676;23.432;2024-01-27T15:05:15;4.37;60.67
84330;SHT31;74510;42.676;23.432;2024-01-27T15:07:40;4.35;60.52
84330;SHT31;74510;42.676;23.432;2024-01-27T15:10:07;4.42;60.08
84330;SHT31;74510;42.676;23.432;2024-01-27T15:12:33;4.38;60.17
84330;SHT31;74510;42.676;23.432;2024-01-27T15:14:58;4.35;60.65
84330;SHT31;74510;42.676;23.432;2024-01-27T15:17:24;4.46;59.49
84330;SHT31;74510;42.676;23.432;2024-01-27T15:19:50;4.44;59.71
84330;SHT31;74510;42.676;23.432;2024-01-27T15:22:17;4.41;59.96